sensor_id;sensor_type;location;lat;lon;timestamp;P1;durP1;ratioP1;P2;durP2;ratioP2
52186;SDS011;38161;53.020;6.598;2023-03-12T00:00:29;14.50;;;6.80;;
52186;SDS011;38161;53.020;6.598;2023-03-12T00:02:55;14.37;;;7.00;;
52186;SDS011;38161;53.020;6.598;2023-03-12T00:05:21;14.90;;;6.40;;
52186;SDS011;38161;53.020;6.598;2023-03-12T00:07:50;11.40;;;4.97;;
52186;SDS011;38161;53.020;6.598;2023-03-12T00:10:16;14.63;;;6.97;;
52186;SDS011;38161;53.020;6.598;2023-03-12T00:12:43;14.03;;;6.73;;
52186;SDS011;38161;53.020;6.598;2023-03-12T00:15:09;13.32;;;6.55;;
52186;SDS011;38161;53.020;6.598;2023-03-12T00:17:35;13.03;;;7.67;;
52186;SDS011;38161;53.020;6.598;2023-03-12T00:20:00;11.07;;;5.60;;
52186;SDS011;38161;53.020;6.598;2023-03-12T00:22:26;14.82;;;6.72;;
52186;SDS011;38161;53.020;6.598;2023-03-12T00:24:53;12.60;;;6.57;;
52186;SDS011;38161;53.020;6.598;2023-03-12T00:27:20;11.57;;;5.80;;
52186;SDS011;38161;53.020;6.598;2023-03-12T00:29:46;8.18;;;4.97;;
52186;SDS011;38161;53.020;6.598;2023-03-12T00:32:12;9.98;;;5.43;;
52186;SDS011;38161;53.020;6.598;2023-03-12T00:34:37;7.60;;;4.70;;
52186;SDS011;38161;53.020;6.598;2023-03-12T00:37:03;9.37;;;4.80;;
52186;SDS011;38161;53.020;6.598;2023-03-12T00:39:29;9.25;;;4.68;;
52186;SDS011;38161;53.020;6.598;2023-03-12T00:44:21;8.13;;;4.33;;
52186;SDS011;38161;53.020;6.598;2023-03-12T00:46:47;11.23;;;5.30;;
52186;SDS011;38161;53.020;6.598;2023-03-12T00:49:12;7.90;;;4.57;;
52186;SDS011;38161;53.020;6.598;2023-03-12T00:51:38;8.70;;;4.10;;
52186;SDS011;38161;53.020;6.598;2023-03-12T00:54:04;9.27;;;4.73;;
52186;SDS011;38161;53.020;6.598;2023-03-12T00:56:30;9.23;;;4.77;;
52186;SDS011;38161;53.020;6.598;2023-03-12T00:58:56;7.88;;;4.13;;
52186;SDS011;38161;53.020;6.598;2023-03-12T01:01:22;7.97;;;4.30;;
52186;SDS011;38161;53.020;6.598;2023-03-12T01:03:48;9.15;;;4.90;;
52186;SDS011;38161;53.020;6.598;2023-03-12T01:06:16;8.87;;;5.07;;
52186;SDS011;38161;53.020;6.598;2023-03-12T01:08:42;8.20;;;4.55;;
52186;SDS011;38161;53.020;6.598;2023-03-12T01:11:11;9.75;;;4.70;;
52186;SDS011;38161;53.020;6.598;2023-03-12T01:13:38;8.23;;;4.40;;
52186;SDS011;38161;53.020;6.598;2023-03-12T01:16:04;7.72;;;4.60;;
52186;SDS011;38161;53.020;6.598;2023-03-12T01:18:30;8.07;;;4.28;;
52186;SDS011;38161;53.020;6.598;2023-03-12T01:20:56;7.97;;;4.40;;
52186;SDS011;38161;53.020;6.598;2023-03-12T01:23:23;7.47;;;4.63;;
52186;SDS011;38161;53.020;6.598;2023-03-12T01:25:49;9.23;;;4.90;;
52186;SDS011;38161;53.020;6.598;2023-03-12T01:30:42;7.50;;;4.27;;
52186;SDS011;38161;53.020;6.598;2023-03-12T01:33:08;10.80;;;5.63;;
52186;SDS011;38161;53.020;6.598;2023-03-12T01:35:34;9.27;;;4.30;;
52186;SDS011;38161;53.020;6.598;2023-03-12T01:38:05;9.33;;;4.73;;
52186;SDS011;38161;53.020;6.598;2023-03-12T01:40:43;9.73;;;4.45;;
52186;SDS011;38161;53.020;6.598;2023-03-12T01:46:00;7.80;;;4.37;;
52186;SDS011;38161;53.020;6.598;2023-03-12T01:48:31;9.43;;;4.60;;
52186;SDS011;38161;53.020;6.598;2023-03-12T01:51:10;7.80;;;4.63;;
52186;SDS011;38161;53.020;6.598;2023-03-12T01:53:38;9.60;;;4.63;;
52186;SDS011;38161;53.020;6.598;2023-03-12T01:56:07;11.47;;;4.87;;
52186;SDS011;38161;53.020;6.598;2023-03-12T02:01:00;11.30;;;4.97;;
52186;SDS011;38161;53.020;6.598;2023-03-12T02:03:26;8.10;;;4.93;;
52186;SDS011;38161;53.020;6.598;2023-03-12T02:05:58;8.63;;;4.10;;
52186;SDS011;38161;53.020;6.598;2023-03-12T02:08:27;10.97;;;5.30;;
52186;SDS011;38161;53.020;6.598;2023-03-12T02:10:54;7.18;;;4.43;;
52186;SDS011;38161;53.020;6.598;2023-03-12T02:13:19;11.77;;;5.17;;
52186;SDS011;38161;53.020;6.598;2023-03-12T02:15:45;10.00;;;4.57;;
52186;SDS011;38161;53.020;6.598;2023-03-12T02:18:14;12.35;;;4.97;;
52186;SDS011;38161;53.020;6.598;2023-03-12T02:23:36;11.55;;;5.22;;
52186;SDS011;38161;53.020;6.598;2023-03-12T02:26:21;7.30;;;5.07;;
52186;SDS011;38161;53.020;6.598;2023-03-12T02:28:49;11.30;;;5.27;;
52186;SDS011;38161;53.020;6.598;2023-03-12T02:33:46;12.17;;;5.60;;
52186;SDS011;38161;53.020;6.598;2023-03-12T02:36:12;14.77;;;5.80;;
52186;SDS011;38161;53.020;6.598;2023-03-12T02:38:46;10.73;;;5.70;;
52186;SDS011;38161;53.020;6.598;2023-03-12T02:46:29;10.57;;;5.17;;
52186;SDS011;38161;53.020;6.598;2023-03-12T02:48:59;8.10;;;4.40;;
52186;SDS011;38161;53.020;6.598;2023-03-12T02:51:25;10.77;;;5.45;;
52186;SDS011;38161;53.020;6.598;2023-03-12T02:53:51;8.23;;;4.87;;
52186;SDS011;38161;53.020;6.598;2023-03-12T02:56:22;9.00;;;5.03;;
52186;SDS011;38161;53.020;6.598;2023-03-12T02:58:51;13.23;;;4.53;;
52186;SDS011;38161;53.020;6.598;2023-03-12T03:01:17;13.45;;;4.65;;
52186;SDS011;38161;53.020;6.598;2023-03-12T03:03:44;8.88;;;4.07;;
52186;SDS011;38161;53.020;6.598;2023-03-12T03:06:10;9.35;;;4.80;;
52186;SDS011;38161;53.020;6.598;2023-03-12T03:08:37;11.15;;;5.07;;
52186;SDS011;38161;53.020;6.598;2023-03-12T03:11:03;9.32;;;4.63;;
52186;SDS011;38161;53.020;6.598;2023-03-12T03:13:29;10.13;;;4.80;;
52186;SDS011;38161;53.020;6.598;2023-03-12T03:15:55;9.67;;;4.73;;
52186;SDS011;38161;53.020;6.598;2023-03-12T03:18:24;8.83;;;4.50;;
52186;SDS011;38161;53.020;6.598;2023-03-12T03:23:20;8.80;;;4.43;;
52186;SDS011;38161;53.020;6.598;2023-03-12T03:25:45;9.77;;;4.47;;
52186;SDS011;38161;53.020;6.598;2023-03-12T03:28:11;11.83;;;4.90;;
52186;SDS011;38161;53.020;6.598;2023-03-12T03:30:37;8.10;;;4.10;;
52186;SDS011;38161;53.020;6.598;2023-03-12T03:33:03;10.30;;;4.63;;
52186;SDS011;38161;53.020;6.598;2023-03-12T03:35:28;9.20;;;4.53;;
52186;SDS011;38161;53.020;6.598;2023-03-12T03:37:54;11.50;;;4.13;;
52186;SDS011;38161;53.020;6.598;2023-03-12T03:40:20;8.60;;;4.37;;
52186;SDS011;38161;53.020;6.598;2023-03-12T03:42:46;8.70;;;4.70;;
52186;SDS011;38161;53.020;6.598;2023-03-12T03:45:11;9.80;;;4.97;;
52186;SDS011;38161;53.020;6.598;2023-03-12T03:47:37;11.07;;;4.80;;
52186;SDS011;38161;53.020;6.598;2023-03-12T03:50:04;11.70;;;5.47;;
52186;SDS011;38161;53.020;6.598;2023-03-12T03:52:30;12.83;;;4.97;;
52186;SDS011;38161;53.020;6.598;2023-03-12T03:54:57;11.77;;;4.93;;
52186;SDS011;38161;53.020;6.598;2023-03-12T03:57:23;12.05;;;5.10;;
52186;SDS011;38161;53.020;6.598;2023-03-12T03:59:50;9.63;;;4.88;;
52186;SDS011;38161;53.020;6.598;2023-03-12T04:02:15;13.68;;;5.50;;
52186;SDS011;38161;53.020;6.598;2023-03-12T04:07:08;11.40;;;4.83;;
52186;SDS011;38161;53.020;6.598;2023-03-12T04:09:33;13.80;;;5.13;;
52186;SDS011;38161;53.020;6.598;2023-03-12T04:11:59;9.97;;;4.73;;
52186;SDS011;38161;53.020;6.598;2023-03-12T04:14:25;10.23;;;5.07;;
52186;SDS011;38161;53.020;6.598;2023-03-12T04:16:51;11.57;;;5.20;;
52186;SDS011;38161;53.020;6.598;2023-03-12T04:19:16;8.50;;;5.10;;
52186;SDS011;38161;53.020;6.598;2023-03-12T04:21:42;11.98;;;4.63;;
52186;SDS011;38161;53.020;6.598;2023-03-12T04:24:11;12.55;;;5.32;;
52186;SDS011;38161;53.020;6.598;2023-03-12T04:26:39;9.00;;;4.80;;
52186;SDS011;38161;53.020;6.598;2023-03-12T04:29:05;12.05;;;5.00;;
52186;SDS011;38161;53.020;6.598;2023-03-12T04:31:31;9.38;;;4.75;;
52186;SDS011;38161;53.020;6.598;2023-03-12T04:33:57;10.27;;;4.65;;
52186;SDS011;38161;53.020;6.598;2023-03-12T04:36:23;12.20;;;5.13;;
52186;SDS011;38161;53.020;6.598;2023-03-12T04:38:49;10.68;;;4.97;;
52186;SDS011;38161;53.020;6.598;2023-03-12T04:41:15;15.10;;;5.33;;
52186;SDS011;38161;53.020;6.598;2023-03-12T04:43:41;8.20;;;4.70;;
52186;SDS011;38161;53.020;6.598;2023-03-12T04:46:07;11.20;;;4.75;;
52186;SDS011;38161;53.020;6.598;2023-03-12T04:51:00;10.90;;;5.10;;
52186;SDS011;38161;53.020;6.598;2023-03-12T04:53:26;8.07;;;4.63;;
52186;SDS011;38161;53.020;6.598;2023-03-12T04:55:52;10.03;;;5.10;;
52186;SDS011;38161;53.020;6.598;2023-03-12T04:58:18;11.47;;;4.87;;
52186;SDS011;38161;53.020;6.598;2023-03-12T05:00:46;8.57;;;4.63;;
52186;SDS011;38161;53.020;6.598;2023-03-12T05:03:13;8.37;;;4.17;;
52186;SDS011;38161;53.020;6.598;2023-03-12T05:05:40;10.75;;;5.03;;
52186;SDS011;38161;53.020;6.598;2023-03-12T05:08:05;9.63;;;5.30;;
52186;SDS011;38161;53.020;6.598;2023-03-12T05:10:31;11.00;;;4.67;;
52186;SDS011;38161;53.020;6.598;2023-03-12T05:12:57;17.57;;;5.53;;
52186;SDS011;38161;53.020;6.598;2023-03-12T05:15:23;8.93;;;4.97;;
52186;SDS011;38161;53.020;6.598;2023-03-12T05:17:49;10.05;;;4.97;;
52186;SDS011;38161;53.020;6.598;2023-03-12T05:20:15;12.10;;;4.50;;
52186;SDS011;38161;53.020;6.598;2023-03-12T05:22:44;9.60;;;5.17;;
52186;SDS011;38161;53.020;6.598;2023-03-12T05:25:10;10.23;;;4.90;;
52186;SDS011;38161;53.020;6.598;2023-03-12T05:27:36;11.93;;;5.10;;
52186;SDS011;38161;53.020;6.598;2023-03-12T05:30:03;11.55;;;5.55;;
52186;SDS011;38161;53.020;6.598;2023-03-12T05:32:30;10.10;;;4.70;;
52186;SDS011;38161;53.020;6.598;2023-03-12T05:34:56;8.83;;;4.67;;
52186;SDS011;38161;53.020;6.598;2023-03-12T05:37:21;9.43;;;5.22;;
52186;SDS011;38161;53.020;6.598;2023-03-12T05:39:47;11.27;;;4.83;;
52186;SDS011;38161;53.020;6.598;2023-03-12T05:42:13;13.87;;;4.80;;
52186;SDS011;38161;53.020;6.598;2023-03-12T05:44:39;11.90;;;5.07;;
52186;SDS011;38161;53.020;6.598;2023-03-12T05:47:05;9.73;;;5.45;;
52186;SDS011;38161;53.020;6.598;2023-03-12T05:49:31;10.25;;;4.93;;
52186;SDS011;38161;53.020;6.598;2023-03-12T05:51:57;11.83;;;5.60;;
52186;SDS011;38161;53.020;6.598;2023-03-12T05:54:22;14.83;;;5.57;;
52186;SDS011;38161;53.020;6.598;2023-03-12T05:56:48;9.17;;;5.17;;
52186;SDS011;38161;53.020;6.598;2023-03-12T05:59:15;9.75;;;5.38;;
52186;SDS011;38161;53.020;6.598;2023-03-12T06:01:40;11.83;;;5.53;;
52186;SDS011;38161;53.020;6.598;2023-03-12T06:04:07;12.48;;;5.50;;
52186;SDS011;38161;53.020;6.598;2023-03-12T06:06:33;14.00;;;5.63;;
52186;SDS011;38161;53.020;6.598;2023-03-12T06:09:01;10.37;;;5.50;;
52186;SDS011;38161;53.020;6.598;2023-03-12T06:11:28;14.13;;;6.30;;
52186;SDS011;38161;53.020;6.598;2023-03-12T06:13:54;12.93;;;5.93;;
52186;SDS011;38161;53.020;6.598;2023-03-12T06:16:21;9.83;;;5.93;;
52186;SDS011;38161;53.020;6.598;2023-03-12T06:18:52;14.27;;;6.10;;
52186;SDS011;38161;53.020;6.598;2023-03-12T06:21:20;9.87;;;5.70;;
52186;SDS011;38161;53.020;6.598;2023-03-12T06:23:48;9.23;;;5.40;;
52186;SDS011;38161;53.020;6.598;2023-03-12T06:26:14;13.00;;;5.88;;
52186;SDS011;38161;53.020;6.598;2023-03-12T06:28:41;10.85;;;6.78;;
52186;SDS011;38161;53.020;6.598;2023-03-12T06:31:08;17.40;;;5.97;;
52186;SDS011;38161;53.020;6.598;2023-03-12T06:33:34;12.25;;;6.95;;
52186;SDS011;38161;53.020;6.598;2023-03-12T06:36:01;12.30;;;6.22;;
52186;SDS011;38161;53.020;6.598;2023-03-12T06:38:29;14.50;;;6.53;;
52186;SDS011;38161;53.020;6.598;2023-03-12T06:40:56;14.25;;;7.25;;
52186;SDS011;38161;53.020;6.598;2023-03-12T06:43:22;11.80;;;6.33;;
52186;SDS011;38161;53.020;6.598;2023-03-12T06:45:49;17.97;;;6.70;;
52186;SDS011;38161;53.020;6.598;2023-03-12T06:48:15;14.32;;;6.43;;
52186;SDS011;38161;53.020;6.598;2023-03-12T06:50:41;14.07;;;6.90;;
52186;SDS011;38161;53.020;6.598;2023-03-12T06:53:07;14.00;;;6.87;;
52186;SDS011;38161;53.020;6.598;2023-03-12T06:55:33;13.03;;;6.37;;
52186;SDS011;38161;53.020;6.598;2023-03-12T06:57:58;12.80;;;6.77;;
52186;SDS011;38161;53.020;6.598;2023-03-12T07:00:24;20.40;;;7.50;;
52186;SDS011;38161;53.020;6.598;2023-03-12T07:02:50;14.17;;;6.90;;
52186;SDS011;38161;53.020;6.598;2023-03-12T07:05:16;12.30;;;7.07;;
52186;SDS011;38161;53.020;6.598;2023-03-12T07:07:42;15.57;;;7.13;;
52186;SDS011;38161;53.020;6.598;2023-03-12T07:10:09;10.93;;;7.23;;
52186;SDS011;38161;53.020;6.598;2023-03-12T07:12:35;13.97;;;7.13;;
52186;SDS011;38161;53.020;6.598;2023-03-12T07:15:01;15.27;;;7.53;;
52186;SDS011;38161;53.020;6.598;2023-03-12T07:17:27;15.40;;;7.38;;
52186;SDS011;38161;53.020;6.598;2023-03-12T07:19:53;13.53;;;8.30;;
52186;SDS011;38161;53.020;6.598;2023-03-12T07:22:18;16.93;;;8.67;;
52186;SDS011;38161;53.020;6.598;2023-03-12T07:24:44;14.07;;;7.83;;
52186;SDS011;38161;53.020;6.598;2023-03-12T07:27:10;18.70;;;8.97;;
52186;SDS011;38161;53.020;6.598;2023-03-12T07:29:36;18.70;;;8.27;;
52186;SDS011;38161;53.020;6.598;2023-03-12T07:32:01;14.70;;;9.13;;
52186;SDS011;38161;53.020;6.598;2023-03-12T07:34:27;16.13;;;8.30;;
52186;SDS011;38161;53.020;6.598;2023-03-12T07:36:53;20.23;;;9.03;;
52186;SDS011;38161;53.020;6.598;2023-03-12T07:39:20;17.10;;;9.43;;
52186;SDS011;38161;53.020;6.598;2023-03-12T07:41:46;21.33;;;9.75;;
52186;SDS011;38161;53.020;6.598;2023-03-12T07:44:11;15.17;;;9.50;;
52186;SDS011;38161;53.020;6.598;2023-03-12T07:46:37;20.30;;;10.00;;
52186;SDS011;38161;53.020;6.598;2023-03-12T07:49:03;22.25;;;10.45;;
52186;SDS011;38161;53.020;6.598;2023-03-12T07:51:29;14.73;;;9.10;;
52186;SDS011;38161;53.020;6.598;2023-03-12T07:53:55;15.50;;;9.77;;
52186;SDS011;38161;53.020;6.598;2023-03-12T07:56:21;20.80;;;10.57;;
52186;SDS011;38161;53.020;6.598;2023-03-12T07:58:47;20.33;;;9.90;;
52186;SDS011;38161;53.020;6.598;2023-03-12T08:01:13;18.70;;;10.05;;
52186;SDS011;38161;53.020;6.598;2023-03-12T08:03:39;18.33;;;10.97;;
52186;SDS011;38161;53.020;6.598;2023-03-12T08:06:05;18.52;;;10.85;;
52186;SDS011;38161;53.020;6.598;2023-03-12T08:08:31;15.90;;;9.75;;
52186;SDS011;38161;53.020;6.598;2023-03-12T08:10:57;22.73;;;10.80;;
52186;SDS011;38161;53.020;6.598;2023-03-12T08:13:24;15.17;;;9.30;;
52186;SDS011;38161;53.020;6.598;2023-03-12T08:15:51;29.52;;;10.05;;
52186;SDS011;38161;53.020;6.598;2023-03-12T08:18:18;17.80;;;9.70;;
52186;SDS011;38161;53.020;6.598;2023-03-12T08:20:44;16.40;;;9.25;;
52186;SDS011;38161;53.020;6.598;2023-03-12T08:23:10;22.05;;;10.77;;
52186;SDS011;38161;53.020;6.598;2023-03-12T08:25:36;18.30;;;9.82;;
52186;SDS011;38161;53.020;6.598;2023-03-12T08:28:02;15.80;;;10.32;;
52186;SDS011;38161;53.020;6.598;2023-03-12T08:30:29;19.83;;;10.47;;
52186;SDS011;38161;53.020;6.598;2023-03-12T08:32:55;15.65;;;9.77;;
52186;SDS011;38161;53.020;6.598;2023-03-12T08:35:22;17.25;;;10.02;;
52186;SDS011;38161;53.020;6.598;2023-03-12T08:37:48;17.65;;;10.07;;
52186;SDS011;38161;53.020;6.598;2023-03-12T08:40:14;17.83;;;10.30;;
52186;SDS011;38161;53.020;6.598;2023-03-12T08:42:40;17.63;;;10.10;;
52186;SDS011;38161;53.020;6.598;2023-03-12T08:45:10;15.90;;;9.90;;
52186;SDS011;38161;53.020;6.598;2023-03-12T08:47:36;16.27;;;9.17;;
52186;SDS011;38161;53.020;6.598;2023-03-12T08:50:06;13.30;;;8.43;;
52186;SDS011;38161;53.020;6.598;2023-03-12T08:52:32;17.57;;;10.03;;
52186;SDS011;38161;53.020;6.598;2023-03-12T08:54:58;19.07;;;9.97;;
52186;SDS011;38161;53.020;6.598;2023-03-12T08:57:24;11.80;;;8.67;;
52186;SDS011;38161;53.020;6.598;2023-03-12T08:59:50;17.05;;;9.25;;
52186;SDS011;38161;53.020;6.598;2023-03-12T09:02:15;15.73;;;9.30;;
52186;SDS011;38161;53.020;6.598;2023-03-12T09:04:41;13.93;;;9.07;;
52186;SDS011;38161;53.020;6.598;2023-03-12T09:07:07;19.23;;;9.00;;
52186;SDS011;38161;53.020;6.598;2023-03-12T09:09:33;14.35;;;9.75;;
52186;SDS011;38161;53.020;6.598;2023-03-12T09:11:59;13.87;;;9.50;;
52186;SDS011;38161;53.020;6.598;2023-03-12T09:14:25;14.53;;;8.93;;
52186;SDS011;38161;53.020;6.598;2023-03-12T09:16:51;13.98;;;9.85;;
52186;SDS011;38161;53.020;6.598;2023-03-12T09:19:16;18.93;;;10.03;;
52186;SDS011;38161;53.020;6.598;2023-03-12T09:21:42;14.47;;;9.97;;
52186;SDS011;38161;53.020;6.598;2023-03-12T09:24:08;14.33;;;9.47;;
52186;SDS011;38161;53.020;6.598;2023-03-12T09:26:35;14.60;;;10.17;;
52186;SDS011;38161;53.020;6.598;2023-03-12T09:29:01;14.10;;;9.77;;
52186;SDS011;38161;53.020;6.598;2023-03-12T09:31:26;17.10;;;9.83;;
52186;SDS011;38161;53.020;6.598;2023-03-12T09:33:52;14.30;;;10.68;;
52186;SDS011;38161;53.020;6.598;2023-03-12T09:36:18;14.57;;;10.07;;
52186;SDS011;38161;53.020;6.598;2023-03-12T09:38:44;17.13;;;10.33;;
52186;SDS011;38161;53.020;6.598;2023-03-12T09:41:17;16.70;;;10.13;;
52186;SDS011;38161;53.020;6.598;2023-03-12T09:43:49;15.87;;;11.10;;
52186;SDS011;38161;53.020;6.598;2023-03-12T09:46:27;19.47;;;11.00;;
52186;SDS011;38161;53.020;6.598;2023-03-12T09:49:03;15.83;;;10.93;;
52186;SDS011;38161;53.020;6.598;2023-03-12T09:51:37;17.23;;;11.43;;
52186;SDS011;38161;53.020;6.598;2023-03-12T09:54:12;16.47;;;11.77;;
52186;SDS011;38161;53.020;6.598;2023-03-12T09:56:49;20.07;;;12.60;;
52186;SDS011;38161;53.020;6.598;2023-03-12T09:59:16;19.40;;;12.80;;
52186;SDS011;38161;53.020;6.598;2023-03-12T10:01:43;17.95;;;12.27;;
52186;SDS011;38161;53.020;6.598;2023-03-12T10:04:23;14.63;;;11.00;;
52186;SDS011;38161;53.020;6.598;2023-03-12T10:07:00;20.50;;;12.03;;
52186;SDS011;38161;53.020;6.598;2023-03-12T10:17:44;19.70;;;12.50;;
52186;SDS011;38161;53.020;6.598;2023-03-12T10:23:16;23.33;;;14.00;;
52186;SDS011;38161;53.020;6.598;2023-03-12T10:28:31;22.95;;;14.18;;
52186;SDS011;38161;53.020;6.598;2023-03-12T10:31:03;22.17;;;14.10;;
52186;SDS011;38161;53.020;6.598;2023-03-12T10:33:41;20.40;;;13.83;;
52186;SDS011;38161;53.020;6.598;2023-03-12T10:36:17;25.27;;;14.90;;
52186;SDS011;38161;53.020;6.598;2023-03-12T10:38:47;21.47;;;15.33;;
52186;SDS011;38161;53.020;6.598;2023-03-12T10:41:14;24.02;;;14.85;;
52186;SDS011;38161;53.020;6.598;2023-03-12T10:43:49;25.70;;;15.97;;
52186;SDS011;38161;53.020;6.598;2023-03-12T10:54:29;21.20;;;15.77;;
52186;SDS011;38161;53.020;6.598;2023-03-12T10:56:57;27.70;;;17.50;;
52186;SDS011;38161;53.020;6.598;2023-03-12T10:59:27;23.75;;;16.85;;
52186;SDS011;38161;53.020;6.598;2023-03-12T11:01:57;22.80;;;15.00;;
52186;SDS011;38161;53.020;6.598;2023-03-12T11:07:02;23.20;;;15.50;;
52186;SDS011;38161;53.020;6.598;2023-03-12T11:09:40;25.33;;;16.27;;
52186;SDS011;38161;53.020;6.598;2023-03-12T11:14:52;24.10;;;15.27;;
52186;SDS011;38161;53.020;6.598;2023-03-12T11:17:19;23.80;;;14.77;;
52186;SDS011;38161;53.020;6.598;2023-03-12T11:19:46;23.30;;;13.93;;
52186;SDS011;38161;53.020;6.598;2023-03-12T11:22:11;24.53;;;16.37;;
52186;SDS011;38161;53.020;6.598;2023-03-12T11:24:55;24.10;;;15.40;;
52186;SDS011;38161;53.020;6.598;2023-03-12T11:27:27;23.73;;;15.33;;
52186;SDS011;38161;53.020;6.598;2023-03-12T11:30:16;21.73;;;15.07;;
52186;SDS011;38161;53.020;6.598;2023-03-12T11:32:46;26.57;;;14.97;;
52186;SDS011;38161;53.020;6.598;2023-03-12T11:35:14;20.53;;;14.57;;
52186;SDS011;38161;53.020;6.598;2023-03-12T11:40:38;22.87;;;14.47;;
52186;SDS011;38161;53.020;6.598;2023-03-12T11:56:46;22.57;;;14.07;;
52186;SDS011;38161;53.020;6.598;2023-03-12T12:36:15;27.48;;;16.42;;
52186;SDS011;38161;53.020;6.598;2023-03-12T12:41:14;24.45;;;15.98;;
52186;SDS011;38161;53.020;6.598;2023-03-12T12:43:48;23.35;;;14.57;;
52186;SDS011;38161;53.020;6.598;2023-03-12T12:46:21;29.05;;;16.63;;
52186;SDS011;38161;53.020;6.598;2023-03-12T12:48:59;31.73;;;16.75;;
52186;SDS011;38161;53.020;6.598;2023-03-12T12:51:32;31.85;;;19.95;;
52186;SDS011;38161;53.020;6.598;2023-03-12T13:01:01;25.67;;;15.93;;
52186;SDS011;38161;53.020;6.598;2023-03-12T13:03:02;29.90;;;17.95;;
52186;SDS011;38161;53.020;6.598;2023-03-12T13:08:00;27.52;;;17.20;;
52186;SDS011;38161;53.020;6.598;2023-03-12T13:13:20;27.63;;;18.05;;
52186;SDS011;38161;53.020;6.598;2023-03-12T13:15:45;32.30;;;14.65;;
52186;SDS011;38161;53.020;6.598;2023-03-12T13:26:02;22.08;;;13.93;;
52186;SDS011;38161;53.020;6.598;2023-03-12T13:33:58;35.85;;;21.05;;
52186;SDS011;38161;53.020;6.598;2023-03-12T13:36:42;49.28;;;26.58;;
52186;SDS011;38161;53.020;6.598;2023-03-12T13:46:47;31.60;;;15.70;;
52186;SDS011;38161;53.020;6.598;2023-03-12T13:49:25;27.52;;;15.23;;
52186;SDS011;38161;53.020;6.598;2023-03-12T13:54:27;24.00;;;13.48;;
52186;SDS011;38161;53.020;6.598;2023-03-12T13:57:04;30.25;;;14.95;;
52186;SDS011;38161;53.020;6.598;2023-03-12T13:59:49;32.08;;;16.52;;
52186;SDS011;38161;53.020;6.598;2023-03-12T14:02:24;28.23;;;14.52;;
52186;SDS011;38161;53.020;6.598;2023-03-12T14:04:53;35.10;;;13.65;;
52186;SDS011;38161;53.020;6.598;2023-03-12T14:18:17;39.13;;;14.98;;
52186;SDS011;38161;53.020;6.598;2023-03-12T14:20:53;37.28;;;15.90;;
52186;SDS011;38161;53.020;6.598;2023-03-12T14:23:27;46.72;;;21.10;;
52186;SDS011;38161;53.020;6.598;2023-03-12T14:25:58;33.22;;;12.25;;
52186;SDS011;38161;53.020;6.598;2023-03-12T14:28:26;40.67;;;14.82;;
52186;SDS011;38161;53.020;6.598;2023-03-12T14:39:16;49.25;;;15.13;;
52186;SDS011;38161;53.020;6.598;2023-03-12T14:42:00;47.08;;;13.40;;
52186;SDS011;38161;53.020;6.598;2023-03-12T14:44:29;36.40;;;12.23;;
52186;SDS011;38161;53.020;6.598;2023-03-12T14:49:27;40.92;;;13.88;;
52186;SDS011;38161;53.020;6.598;2023-03-12T14:51:54;42.42;;;14.20;;
52186;SDS011;38161;53.020;6.598;2023-03-12T14:56:49;44.58;;;14.60;;
52186;SDS011;38161;53.020;6.598;2023-03-12T14:59:25;42.33;;;12.90;;
52186;SDS011;38161;53.020;6.598;2023-03-12T15:04:41;42.47;;;13.20;;
52186;SDS011;38161;53.020;6.598;2023-03-12T15:07:12;48.90;;;12.65;;
52186;SDS011;38161;53.020;6.598;2023-03-12T15:09:43;54.47;;;12.48;;
52186;SDS011;38161;53.020;6.598;2023-03-12T15:12:26;41.97;;;13.38;;
52186;SDS011;38161;53.020;6.598;2023-03-12T15:15:02;41.85;;;14.95;;
52186;SDS011;38161;53.020;6.598;2023-03-12T15:17:51;51.78;;;12.55;;
52186;SDS011;38161;53.020;6.598;2023-03-12T15:20:16;51.15;;;13.18;;
52186;SDS011;38161;53.020;6.598;2023-03-12T15:22:44;48.70;;;12.57;;
52186;SDS011;38161;53.020;6.598;2023-03-12T15:25:29;54.08;;;12.10;;
52186;SDS011;38161;53.020;6.598;2023-03-12T15:28:02;48.55;;;11.82;;
52186;SDS011;38161;53.020;6.598;2023-03-12T15:31:02;54.55;;;12.85;;
52186;SDS011;38161;53.020;6.598;2023-03-12T15:33:40;52.55;;;11.82;;
52186;SDS011;38161;53.020;6.598;2023-03-12T15:38:43;46.65;;;12.20;;
52186;SDS011;38161;53.020;6.598;2023-03-12T15:41:19;52.17;;;13.00;;
52186;SDS011;38161;53.020;6.598;2023-03-12T15:43:50;50.45;;;12.40;;
52186;SDS011;38161;53.020;6.598;2023-03-12T15:46:18;47.70;;;12.48;;
52186;SDS011;38161;53.020;6.598;2023-03-12T15:48:54;49.25;;;12.27;;
52186;SDS011;38161;53.020;6.598;2023-03-12T15:51:29;44.60;;;12.20;;
52186;SDS011;38161;53.020;6.598;2023-03-12T15:56:37;46.05;;;10.82;;
52186;SDS011;38161;53.020;6.598;2023-03-12T16:01:44;62.03;;;17.20;;
52186;SDS011;38161;53.020;6.598;2023-03-12T16:04:11;53.90;;;17.90;;
52186;SDS011;38161;53.020;6.598;2023-03-12T16:06:37;51.80;;;11.65;;
52186;SDS011;38161;53.020;6.598;2023-03-12T16:09:04;51.42;;;14.63;;
52186;SDS011;38161;53.020;6.598;2023-03-12T16:11:30;62.97;;;13.98;;
52186;SDS011;38161;53.020;6.598;2023-03-12T16:14:01;55.92;;;13.02;;
52186;SDS011;38161;53.020;6.598;2023-03-12T16:16:49;41.50;;;11.30;;
52186;SDS011;38161;53.020;6.598;2023-03-12T16:19:16;49.88;;;11.48;;
52186;SDS011;38161;53.020;6.598;2023-03-12T16:21:44;52.90;;;11.38;;
52186;SDS011;38161;53.020;6.598;2023-03-12T16:24:10;49.33;;;9.97;;
52186;SDS011;38161;53.020;6.598;2023-03-12T16:26:40;50.05;;;10.07;;
52186;SDS011;38161;53.020;6.598;2023-03-12T16:29:19;51.25;;;10.50;;
52186;SDS011;38161;53.020;6.598;2023-03-12T16:31:50;63.63;;;11.25;;
52186;SDS011;38161;53.020;6.598;2023-03-12T16:34:18;56.17;;;12.05;;
52186;SDS011;38161;53.020;6.598;2023-03-12T16:36:44;52.60;;;9.70;;
52186;SDS011;38161;53.020;6.598;2023-03-12T16:39:09;52.25;;;10.57;;
52186;SDS011;38161;53.020;6.598;2023-03-12T16:41:35;48.90;;;9.75;;
52186;SDS011;38161;53.020;6.598;2023-03-12T16:44:01;47.42;;;9.00;;
52186;SDS011;38161;53.020;6.598;2023-03-12T16:46:30;53.70;;;10.13;;
52186;SDS011;38161;53.020;6.598;2023-03-12T16:48:57;54.38;;;9.35;;
52186;SDS011;38161;53.020;6.598;2023-03-12T16:51:23;44.40;;;9.30;;
52186;SDS011;38161;53.020;6.598;2023-03-12T16:53:49;50.65;;;9.10;;
52186;SDS011;38161;53.020;6.598;2023-03-12T16:56:15;40.53;;;9.27;;
52186;SDS011;38161;53.020;6.598;2023-03-12T16:58:45;60.63;;;10.27;;
52186;SDS011;38161;53.020;6.598;2023-03-12T17:01:14;49.83;;;8.65;;
52186;SDS011;38161;53.020;6.598;2023-03-12T17:03:43;40.78;;;8.63;;
52186;SDS011;38161;53.020;6.598;2023-03-12T17:06:24;53.15;;;10.25;;
52186;SDS011;38161;53.020;6.598;2023-03-12T17:08:50;48.85;;;8.38;;
52186;SDS011;38161;53.020;6.598;2023-03-12T17:11:21;42.17;;;8.45;;
52186;SDS011;38161;53.020;6.598;2023-03-12T17:13:52;48.25;;;8.30;;
52186;SDS011;38161;53.020;6.598;2023-03-12T17:16:24;57.28;;;9.40;;
52186;SDS011;38161;53.020;6.598;2023-03-12T17:18:50;50.17;;;8.70;;
52186;SDS011;38161;53.020;6.598;2023-03-12T17:21:16;45.13;;;8.98;;
52186;SDS011;38161;53.020;6.598;2023-03-12T17:26:09;42.33;;;8.67;;
52186;SDS011;38161;53.020;6.598;2023-03-12T17:28:35;46.30;;;8.40;;
52186;SDS011;38161;53.020;6.598;2023-03-12T17:31:02;57.72;;;9.75;;
52186;SDS011;38161;53.020;6.598;2023-03-12T17:33:28;44.17;;;8.35;;
52186;SDS011;38161;53.020;6.598;2023-03-12T17:35:57;40.85;;;7.80;;
52186;SDS011;38161;53.020;6.598;2023-03-12T17:38:25;43.78;;;8.75;;
52186;SDS011;38161;53.020;6.598;2023-03-12T17:40:51;40.80;;;8.88;;
52186;SDS011;38161;53.020;6.598;2023-03-12T17:43:17;44.40;;;8.90;;